createdAt,value
2023-01-29T00:02:54.561Z,39.53
2023-01-29T00:06:58.054Z,37.53
2023-01-29T00:11:02.694Z,36.87
2023-01-29T00:15:08.935Z,35.80
2023-01-29T00:19:12.316Z,37.10
2023-01-29T00:23:15.766Z,38.93
2023-01-29T00:27:19.164Z,34.60
2023-01-29T00:31:26.069Z,40.63
2023-01-29T00:35:29.643Z,32.27
2023-01-29T00:39:47.423Z,40.07
2023-01-29T00:44:09.197Z,39.57
2023-01-29T00:48:13.930Z,39.53
2023-01-29T00:52:26.296Z,38.10
2023-01-29T00:56:30.609Z,36.83
2023-01-29T01:00:34.158Z,40.97
2023-01-29T01:04:38.831Z,35.13
2023-01-29T01:08:59.712Z,35.67
2023-01-29T01:13:08.053Z,37.90
2023-01-29T01:17:11.560Z,39.47
2023-01-29T01:21:16.398Z,36.70
2023-01-29T01:25:19.995Z,34.80
2023-01-29T01:29:23.370Z,34.80
2023-01-29T01:33:26.889Z,34.60
2023-01-29T01:37:31.677Z,35.43
2023-01-29T01:41:35.110Z,36.07
2023-01-29T01:45:38.965Z,33.70
2023-01-29T01:49:42.434Z,34.43
2023-01-29T01:53:53.756Z,35.10
2023-01-29T01:58:03.287Z,41.27
2023-01-29T02:02:25.429Z,30.33
2023-01-29T02:06:46.490Z,36.87
2023-01-29T02:10:51.484Z,40.80
2023-01-29T02:14:54.841Z,33.63
2023-01-29T02:18:58.264Z,35.73
2023-01-29T02:23:35.460Z,40.67
2023-01-29T02:28:15.232Z,34.00
2023-01-29T02:32:26.061Z,41.17
2023-01-29T02:36:37.034Z,36.67
2023-01-29T02:40:45.189Z,34.87
2023-01-29T02:44:57.340Z,35.20
2023-01-29T02:49:08.390Z,32.30
2023-01-29T02:53:17.124Z,40.37
2023-01-29T02:57:24.837Z,34.00
2023-01-29T03:01:35.101Z,36.83
2023-01-29T03:05:46.456Z,46.73
2023-01-29T03:09:53.863Z,35.93
2023-01-29T03:14:01.258Z,35.93
2023-01-29T03:18:10.969Z,42.77
2023-01-29T03:22:16.842Z,42.13
2023-01-29T03:26:41.005Z,33.40
2023-01-29T03:31:07.674Z,37.67
2023-01-29T03:35:21.153Z,33.93
2023-01-29T03:39:30.157Z,35.00
2023-01-29T03:43:39.403Z,36.63
2023-01-29T03:47:47.477Z,34.90
2023-01-29T03:51:59.520Z,37.53
2023-01-29T03:56:07.273Z,30.13
2023-01-29T04:00:16.945Z,41.40
2023-01-29T04:04:26.067Z,35.40
2023-01-29T04:08:35.177Z,32.13
2023-01-29T04:12:41.407Z,36.10
2023-01-29T04:16:49.838Z,40.83
2023-01-29T04:20:53.583Z,29.60
2023-01-29T04:25:02.949Z,32.30
2023-01-29T04:29:32.082Z,40.77
2023-01-29T04:33:40.566Z,38.40
2023-01-29T04:37:57.495Z,37.33
2023-01-29T04:42:13.645Z,34.50
2023-01-29T04:46:21.146Z,39.03
2023-01-29T04:50:30.409Z,36.33
2023-01-29T04:54:46.044Z,43.37
2023-01-29T04:58:54.630Z,36.77
2023-01-29T05:02:58.597Z,35.57
2023-01-29T05:07:06.378Z,28.50
2023-01-29T05:11:10.897Z,27.47
2023-01-29T05:15:21.481Z,30.70
2023-01-29T05:19:24.785Z,35.93
2023-01-29T05:23:28.296Z,31.10
2023-01-29T05:27:53.553Z,32.53
2023-01-29T05:31:58.258Z,25.27
2023-01-29T05:36:01.907Z,24.20
2023-01-29T05:40:09.724Z,28.97
2023-01-29T05:44:13.331Z,26.50
2023-01-29T05:48:20.026Z,24.57
2023-01-29T05:52:23.465Z,25.80
2023-01-29T05:56:26.835Z,25.17
2023-01-29T06:00:30.206Z,18.60
2023-01-29T06:04:35.347Z,24.80
2023-01-29T06:08:40.246Z,22.97
2023-01-29T06:12:44.155Z,32.27
2023-01-29T06:16:47.453Z,29.97
2023-01-29T06:20:52.103Z,28.53
2023-01-29T06:24:55.545Z,31.97
2023-01-29T06:28:58.787Z,30.63
2023-01-29T06:33:02.931Z,27.30
2023-01-29T06:37:08.020Z,30.83
2023-01-29T06:41:12.953Z,30.00
2023-01-29T06:45:16.473Z,32.20
2023-01-29T06:49:19.765Z,29.30
2023-01-29T06:53:25.033Z,32.97
2023-01-29T06:57:30.622Z,36.10
2023-01-29T07:01:36.402Z,41.03
2023-01-29T07:05:40.165Z,43.73
2023-01-29T07:09:45.282Z,42.97
2023-01-29T07:13:48.659Z,56.37
2023-01-29T07:17:59.788Z,60.20
2023-01-29T07:22:04.055Z,39.40
2023-01-29T07:26:09.239Z,42.80
2023-01-29T07:30:13.601Z,33.43
2023-01-29T07:34:16.929Z,35.00
2023-01-29T07:38:20.543Z,38.10
2023-01-29T07:42:29.447Z,29.23
2023-01-29T07:46:32.768Z,33.47
2023-01-29T07:50:37.291Z,32.23
2023-01-29T07:54:40.520Z,25.13
2023-01-29T07:58:45.190Z,27.40
2023-01-29T08:02:48.423Z,28.90
2023-01-29T08:06:51.791Z,23.63
2023-01-29T08:10:55.093Z,20.50
2023-01-29T08:15:00.130Z,28.43
2023-01-29T08:19:04.145Z,22.80
2023-01-29T08:23:09.481Z,22.70
2023-01-29T08:27:13.009Z,28.63
2023-01-29T08:31:20.708Z,22.63
2023-01-29T08:35:24.191Z,20.03
2023-01-29T08:39:27.489Z,24.97
2023-01-29T08:43:30.828Z,21.63
2023-01-29T08:47:36.321Z,22.33
2023-01-29T08:51:39.823Z,18.77
2023-01-29T08:55:43.276Z,20.73
2023-01-29T08:59:46.500Z,22.07
2023-01-29T09:03:52.506Z,17.90
2023-01-29T09:07:57.655Z,19.97
2023-01-29T09:12:00.879Z,19.70
2023-01-29T09:16:05.874Z,18.40
2023-01-29T09:20:12.393Z,21.10
2023-01-29T09:24:15.775Z,16.90
2023-01-29T09:28:19.068Z,18.83
2023-01-29T09:32:49.808Z,17.43
2023-01-29T09:36:46.883Z,25.77
2023-01-29T09:40:59.801Z,19.37
2023-01-29T09:45:07.974Z,18.77
2023-01-29T09:49:15.848Z,17.53
2023-01-29T09:53:25.606Z,13.70
2023-01-29T09:57:36.034Z,15.27
2023-01-29T10:01:49.330Z,13.83
2023-01-29T10:06:06.345Z,15.23
2023-01-29T10:10:25.749Z,15.50
2023-01-29T10:14:38.127Z,13.63
2023-01-29T10:19:08.491Z,11.50
2023-01-29T10:23:22.940Z,15.77
2023-01-29T10:27:33.756Z,11.80
2023-01-29T10:31:41.062Z,14.20
2023-01-29T10:35:50.330Z,15.77
2023-01-29T10:39:53.636Z,16.83
2023-01-29T10:44:08.225Z,12.13
2023-01-29T10:48:41.488Z,16.00
2023-01-29T10:53:09.932Z,14.60
2023-01-29T10:57:20.344Z,14.93
2023-01-29T11:01:26.984Z,16.10
2023-01-29T11:05:35.581Z,20.80
2023-01-29T11:09:44.197Z,16.13
2023-01-29T11:13:54.410Z,16.20
2023-01-29T11:18:11.700Z,16.83
2023-01-29T11:22:17.136Z,13.83
2023-01-29T11:26:24.093Z,14.57
2023-01-29T11:30:29.511Z,11.90
2023-01-29T11:34:35.695Z,16.00
2023-01-29T11:38:38.890Z,18.53
2023-01-29T11:42:42.549Z,19.40
2023-01-29T11:46:46.441Z,15.23
2023-01-29T11:50:56.769Z,16.13
2023-01-29T11:55:03.675Z,17.27
2023-01-29T11:59:08.444Z,15.60
2023-01-29T12:03:17.677Z,16.93
2023-01-29T12:07:22.910Z,17.20
2023-01-29T12:11:29.910Z,15.40
2023-01-29T12:15:33.609Z,19.70
2023-01-29T12:19:42.706Z,15.70
2023-01-29T12:23:53.668Z,15.83
2023-01-29T12:28:01.554Z,17.10
2023-01-29T12:32:14.506Z,15.10
2023-01-29T12:36:23.607Z,16.40
2023-01-29T12:40:32.840Z,18.90
2023-01-29T12:44:43.056Z,20.67
2023-01-29T12:48:47.590Z,19.93
2023-01-29T12:52:55.144Z,16.23
2023-01-29T12:57:03.991Z,20.60
2023-01-29T13:01:15.432Z,18.17
2023-01-29T13:05:25.067Z,12.90
2023-01-29T13:09:31.566Z,16.03
2023-01-29T13:13:43.226Z,13.80
2023-01-29T13:17:50.243Z,21.70
2023-01-29T13:21:55.211Z,16.33
2023-01-29T13:25:58.992Z,19.20
2023-01-29T13:30:05.511Z,16.03
2023-01-29T13:34:16.241Z,19.10
2023-01-29T13:38:27.003Z,15.30
2023-01-29T13:42:41.068Z,15.60
2023-01-29T13:46:51.747Z,16.80
2023-01-29T13:50:58.124Z,15.23
2023-01-29T13:55:04.171Z,17.97
2023-01-29T13:59:08.210Z,21.10
2023-01-29T14:04:03.847Z,16.20
2023-01-29T14:08:08.158Z,18.63
2023-01-29T14:12:34.526Z,16.77
2023-01-29T14:16:38.541Z,19.83
2023-01-29T14:21:02.863Z,17.07
2023-01-29T14:25:08.201Z,19.00
2023-01-29T14:29:32.549Z,16.90
2023-01-29T14:33:41.690Z,15.10
2023-01-29T14:37:51.446Z,16.57
2023-01-29T14:41:56.075Z,18.77
2023-01-29T14:46:45.475Z,16.70
2023-01-29T14:51:00.859Z,19.50
2023-01-29T14:55:11.361Z,13.87
2023-01-29T14:59:19.070Z,17.00
2023-01-29T15:03:31.566Z,18.27
2023-01-29T15:07:38.376Z,14.30
2023-01-29T15:11:54.153Z,17.03
2023-01-29T15:16:06.302Z,23.30
2023-01-29T15:20:29.294Z,17.97
2023-01-29T15:24:33.141Z,18.67
2023-01-29T15:28:39.147Z,23.20
2023-01-29T15:32:44.398Z,17.60
2023-01-29T15:36:49.715Z,16.97
2023-01-29T15:40:54.428Z,16.70
2023-01-29T15:45:00.432Z,16.93
2023-01-29T15:49:12.803Z,19.70
2023-01-29T15:53:21.792Z,16.80
2023-01-29T15:57:27.631Z,18.77
2023-01-29T16:01:33.385Z,17.43
2023-01-29T16:05:40.266Z,19.70
2023-01-29T16:09:45.129Z,17.00
2023-01-29T16:13:51.306Z,18.43
2023-01-29T16:17:57.517Z,22.67
2023-01-29T16:22:03.404Z,23.47
2023-01-29T16:26:09.034Z,17.03
2023-01-29T16:30:17.864Z,21.53
2023-01-29T16:34:29.016Z,24.23
2023-01-29T16:38:37.247Z,21.47
2023-01-29T16:42:42.753Z,23.07
2023-01-29T16:46:48.727Z,20.90
2023-01-29T16:51:06.428Z,18.03
2023-01-29T16:55:23.775Z,26.43
2023-01-29T16:59:34.028Z,19.43
2023-01-29T17:03:39.647Z,15.67
2023-01-29T17:07:48.041Z,19.30
2023-01-29T17:12:00.796Z,16.27
2023-01-29T17:16:16.890Z,17.63
2023-01-29T17:20:21.661Z,15.70
2023-01-29T17:24:32.127Z,15.83
2023-01-29T17:28:37.092Z,15.70
2023-01-29T17:32:44.155Z,17.33
2023-01-29T17:36:50.204Z,17.73
2023-01-29T17:41:00.165Z,14.80
2023-01-29T17:45:08.313Z,18.57
2023-01-29T17:49:25.201Z,18.87
2023-01-29T17:53:44.125Z,16.13
2023-01-29T17:57:51.696Z,18.80
2023-01-29T18:01:56.785Z,16.77
2023-01-29T18:06:01.975Z,17.50
2023-01-29T18:10:07.488Z,16.63
2023-01-29T18:14:16.163Z,17.77
2023-01-29T18:18:24.765Z,18.00
2023-01-29T18:22:30.420Z,24.27
2023-01-29T18:26:36.443Z,24.53
2023-01-29T18:30:44.926Z,16.57
2023-01-29T18:34:50.041Z,19.47
2023-01-29T18:38:56.964Z,18.63
2023-01-29T18:43:01.444Z,18.07
2023-01-29T18:47:07.897Z,19.50
2023-01-29T18:51:14.383Z,19.40
2023-01-29T18:55:19.414Z,15.53
2023-01-29T18:59:24.225Z,21.20
2023-01-29T19:03:30.466Z,17.40
2023-01-29T19:07:35.949Z,20.00
2023-01-29T19:11:42.108Z,18.80
2023-01-29T19:15:48.722Z,16.97
2023-01-29T19:20:02.509Z,15.33
2023-01-29T19:24:10.642Z,18.43
2023-01-29T19:28:15.802Z,20.17
2023-01-29T19:32:25.013Z,23.60
2023-01-29T19:36:33.196Z,18.20
2023-01-29T19:40:39.976Z,18.57
2023-01-29T19:44:45.975Z,21.53
2023-01-29T19:48:51.538Z,17.77
2023-01-29T19:52:59.094Z,20.80
2023-01-29T19:57:05.185Z,20.83
2023-01-29T20:01:15.987Z,22.00
2023-01-29T20:05:22.215Z,18.43
2023-01-29T20:09:30.978Z,25.20
2023-01-29T20:13:36.703Z,22.23
2023-01-29T20:17:42.277Z,24.93
2023-01-29T20:21:50.478Z,20.50
2023-01-29T20:26:02.564Z,17.13
2023-01-29T20:30:09.900Z,22.30
2023-01-29T20:34:15.089Z,18.37
2023-01-29T20:38:20.090Z,21.73
2023-01-29T20:42:26.751Z,21.20
2023-01-29T20:46:32.160Z,19.77
2023-01-29T20:50:39.733Z,24.13
2023-01-29T20:54:44.065Z,20.17
2023-01-29T20:58:50.377Z,19.43
2023-01-29T21:02:54.980Z,24.60
2023-01-29T21:07:00.119Z,21.90
2023-01-29T21:11:05.013Z,20.77
2023-01-29T21:15:13.795Z,28.03
2023-01-29T21:19:18.833Z,18.43
2023-01-29T21:23:23.654Z,23.10
2023-01-29T21:27:28.235Z,22.93
2023-01-29T21:31:35.567Z,21.60
2023-01-29T21:35:42.193Z,16.57
2023-01-29T21:39:46.136Z,20.77
2023-01-29T21:43:50.406Z,23.23
2023-01-29T21:47:55.585Z,19.70
2023-01-29T21:52:00.681Z,18.47
2023-01-29T21:56:05.877Z,19.63
2023-01-29T22:00:11.290Z,21.93
2023-01-29T22:04:16.588Z,17.87
2023-01-29T22:08:20.638Z,20.67
2023-01-29T22:12:24.556Z,21.27
2023-01-29T22:16:29.989Z,18.20
2023-01-29T22:20:36.812Z,19.70
2023-01-29T22:24:40.190Z,22.40
2023-01-29T22:28:43.686Z,21.23
2023-01-29T22:32:46.970Z,28.00
2023-01-29T22:36:51.742Z,20.53
2023-01-29T22:40:56.790Z,22.57
2023-01-29T22:45:00.103Z,22.57
2023-01-29T22:49:03.571Z,21.60
2023-01-29T22:53:08.749Z,25.40
2023-01-29T22:57:13.571Z,20.30
2023-01-29T23:01:19.940Z,21.80
2023-01-29T23:05:23.210Z,24.60
2023-01-29T23:09:27.849Z,23.00
2023-01-29T23:13:31.255Z,19.53
2023-01-29T23:17:34.459Z,24.73
2023-01-29T23:21:37.969Z,20.03
2023-01-29T23:25:59.995Z,17.60
2023-01-29T23:30:03.279Z,21.70
2023-01-29T23:34:06.770Z,23.27
2023-01-29T23:38:09.976Z,23.90
2023-01-29T23:42:14.671Z,23.00
2023-01-29T23:46:17.867Z,30.97
2023-01-29T23:50:21.234Z,20.77
2023-01-29T23:54:24.478Z,28.57
2023-01-29T23:58:30.307Z,25.27
